createdAt,value
2018-06-03T00:01:14.072Z,46.22
2018-06-03T00:03:47.192Z,43.45
2018-06-03T00:06:19.761Z,44.40
2018-06-03T00:08:55.583Z,44.58
2018-06-03T00:11:27.999Z,43.80
2018-06-03T00:14:01.086Z,45.10
2018-06-03T00:16:34.257Z,44.25
2018-06-03T00:19:06.681Z,43.42
2018-06-03T00:21:42.296Z,44.77
2018-06-03T00:24:14.690Z,41.22
2018-06-03T00:26:47.228Z,44.15
2018-06-03T00:31:58.982Z,44.58
2018-06-03T00:34:31.343Z,44.60
2018-06-03T00:37:07.901Z,43.97
2018-06-03T00:39:40.528Z,48.73
2018-06-03T00:42:13.216Z,45.08
2018-06-03T00:44:46.688Z,45.03
2018-06-03T00:47:19.163Z,47.30
2018-06-03T00:49:52.407Z,47.95
2018-06-03T00:52:25.682Z,47.88
2018-06-03T00:54:58.326Z,46.92
2018-06-03T00:57:30.778Z,45.50
2018-06-03T01:00:04.487Z,49.65
2018-06-03T01:02:37.609Z,47.53
2018-06-03T01:05:10.144Z,45.97
2018-06-03T01:07:42.531Z,47.17
2018-06-03T01:10:15.658Z,47.60
2018-06-03T01:12:49.137Z,48.40
2018-06-03T01:15:21.777Z,47.20
2018-06-03T01:17:54.346Z,48.90
2018-06-03T01:20:27.733Z,44.67
2018-06-03T01:23:00.117Z,47.63
2018-06-03T01:25:36.061Z,51.83
2018-06-03T01:28:13.426Z,50.05
2018-06-03T01:30:45.915Z,48.63
2018-06-03T01:33:18.518Z,49.63
2018-06-03T01:35:51.212Z,47.73
2018-06-03T01:38:24.573Z,49.73
2018-06-03T01:40:57.016Z,48.73
2018-06-03T01:43:29.438Z,48.60
2018-06-03T01:46:01.851Z,43.90
2018-06-03T01:48:35.016Z,46.17
2018-06-03T01:51:11.993Z,44.03
2018-06-03T01:53:44.541Z,44.67
2018-06-03T01:56:21.298Z,43.60
2018-06-03T01:58:53.872Z,47.13
2018-06-03T02:01:26.297Z,43.60
2018-06-03T02:03:58.757Z,45.23
2018-06-03T02:06:31.203Z,43.03
2018-06-03T02:09:07.413Z,43.17
2018-06-03T02:11:39.778Z,41.73
2018-06-03T02:14:12.475Z,43.97
2018-06-03T02:16:45.561Z,43.90
2018-06-03T02:19:18.807Z,40.33
2018-06-03T02:21:51.197Z,43.63
2018-06-03T02:24:23.588Z,43.47
2018-06-03T02:26:56.806Z,40.77
2018-06-03T02:29:33.291Z,41.70
2018-06-03T02:32:05.589Z,43.10
2018-06-03T02:34:37.967Z,42.30
2018-06-03T02:37:13.787Z,39.57
2018-06-03T02:39:46.234Z,39.03
2018-06-03T02:42:18.904Z,40.77
2018-06-03T02:44:55.136Z,40.42
2018-06-03T02:47:29.062Z,39.37
2018-06-03T02:50:01.739Z,40.00
2018-06-03T02:52:34.851Z,37.67
2018-06-03T02:55:07.218Z,39.27
2018-06-03T02:57:39.687Z,38.67
2018-06-03T03:00:12.657Z,39.27
2018-06-03T03:02:45.161Z,38.50
2018-06-03T03:05:17.638Z,36.47
2018-06-03T03:07:50.172Z,37.47
2018-06-03T03:10:26.517Z,40.53
2018-06-03T03:12:58.922Z,39.70
2018-06-03T03:15:31.367Z,39.17
2018-06-03T03:18:03.848Z,39.63
2018-06-03T03:20:37.045Z,38.20
2018-06-03T03:23:10.227Z,41.63
2018-06-03T03:25:43.410Z,41.13
2018-06-03T03:28:16.552Z,39.73
2018-06-03T03:30:49.076Z,37.33
2018-06-03T03:33:21.508Z,35.60
2018-06-03T03:35:54.678Z,37.47
2018-06-03T03:38:27.892Z,39.23
2018-06-03T03:41:00.530Z,37.80
2018-06-03T03:43:32.953Z,40.83
2018-06-03T03:46:06.156Z,40.13
2018-06-03T03:48:39.239Z,41.80
2018-06-03T03:51:11.790Z,40.30
2018-06-03T03:53:45.041Z,40.33
2018-06-03T03:56:17.750Z,40.20
2018-06-03T03:58:50.190Z,40.53
2018-06-03T04:01:23.353Z,38.37
2018-06-03T04:03:55.859Z,39.97
2018-06-03T04:06:28.346Z,40.97
2018-06-03T04:09:00.834Z,41.10
2018-06-03T04:11:33.280Z,43.73
2018-06-03T04:14:06.008Z,42.87
2018-06-03T04:16:39.273Z,41.07
2018-06-03T04:19:11.670Z,42.53
2018-06-03T04:22:15.646Z,43.08
2018-06-03T04:24:49.514Z,40.30
2018-06-03T04:27:23.683Z,41.55
2018-06-03T04:29:57.623Z,40.63
2018-06-03T04:32:31.903Z,38.50
2018-06-03T04:35:05.843Z,38.38
2018-06-03T04:37:40.172Z,38.70
2018-06-03T04:40:14.265Z,38.87
2018-06-03T04:42:48.282Z,38.42
2018-06-03T04:45:22.073Z,39.13
2018-06-03T04:47:56.017Z,37.00
2018-06-03T04:50:30.107Z,38.40
2018-06-03T04:53:04.091Z,38.17
2018-06-03T04:55:37.931Z,39.67
2018-06-03T04:58:11.858Z,37.48
2018-06-03T05:00:45.943Z,37.40
2018-06-03T05:03:20.108Z,37.28
2018-06-03T05:05:54.051Z,36.88
2018-06-03T05:08:27.924Z,31.60
2018-06-03T05:11:02.063Z,35.03
2018-06-03T05:13:39.172Z,35.48
2018-06-03T05:16:13.352Z,34.98
2018-06-03T05:18:47.542Z,34.05
2018-06-03T05:21:21.737Z,34.23
2018-06-03T05:23:59.681Z,33.23
2018-06-03T05:26:33.773Z,32.75
2018-06-03T05:29:07.749Z,33.20
2018-06-03T05:31:41.962Z,33.25
2018-06-03T05:34:15.978Z,35.78
2018-06-03T05:36:49.779Z,34.83
2018-06-03T05:39:27.682Z,34.13
2018-06-03T05:42:01.780Z,33.05
2018-06-03T05:44:35.673Z,35.13
2018-06-03T05:47:09.480Z,32.73
2018-06-03T05:49:43.619Z,32.67
2018-06-03T05:52:17.471Z,32.17
2018-06-03T05:54:51.411Z,31.70
2018-06-03T05:57:25.467Z,28.62
2018-06-03T05:59:59.322Z,28.85
2018-06-03T06:02:33.358Z,29.72
2018-06-03T06:05:07.453Z,28.90
2018-06-03T06:07:42.242Z,30.97
2018-06-03T06:10:16.418Z,29.63
2018-06-03T06:12:50.232Z,30.20
2018-06-03T06:15:28.288Z,32.48
2018-06-03T06:18:02.259Z,31.17
2018-06-03T06:20:36.228Z,29.72
2018-06-03T06:23:10.150Z,28.98
2018-06-03T06:25:44.122Z,28.42
2018-06-03T06:28:17.937Z,26.70
2018-06-03T06:30:51.895Z,28.15
2018-06-03T06:33:26.220Z,27.22
2018-06-03T06:36:00.251Z,28.50
2018-06-03T06:38:34.334Z,27.82
2018-06-03T06:41:08.253Z,28.83
2018-06-03T06:43:42.088Z,27.87
2018-06-03T06:46:16.237Z,29.52
2018-06-03T06:48:50.757Z,28.83
2018-06-03T06:51:24.637Z,28.95
2018-06-03T06:53:58.542Z,31.15
2018-06-03T06:56:32.420Z,29.63
2018-06-03T06:59:06.510Z,30.92
2018-06-03T07:01:43.495Z,30.25
2018-06-03T07:04:17.808Z,27.67
2018-06-03T07:06:52.299Z,29.27
2018-06-03T07:09:26.277Z,29.27
2018-06-03T07:12:00.078Z,29.80
2018-06-03T07:14:34.568Z,29.23
2018-06-03T07:17:12.198Z,29.42
2018-06-03T07:19:46.443Z,30.70
2018-06-03T07:22:20.352Z,30.68
2018-06-03T07:24:54.420Z,29.35
2018-06-03T07:27:28.593Z,30.68
2018-06-03T07:30:02.664Z,32.58
2018-06-03T07:32:36.982Z,27.40
2018-06-03T07:35:11.020Z,28.35
2018-06-03T07:37:45.235Z,31.45
2018-06-03T07:40:19.204Z,28.90
2018-06-03T07:42:53.430Z,30.40
2018-06-03T07:45:28.950Z,34.03
2018-06-03T07:48:02.849Z,32.93
2018-06-03T07:50:36.703Z,33.33
2018-06-03T07:53:10.686Z,32.73
2018-06-03T07:55:44.665Z,31.70
2018-06-03T07:58:18.704Z,33.55
2018-06-03T08:00:52.767Z,33.40
2018-06-03T08:03:26.720Z,31.75
2018-06-03T08:06:00.949Z,31.97
2018-06-03T08:08:34.869Z,32.25
2018-06-03T08:11:08.858Z,31.57
2018-06-03T08:13:42.858Z,31.48
2018-06-03T08:16:16.971Z,32.55
2018-06-03T08:18:54.773Z,32.50
2018-06-03T08:21:28.644Z,31.95
2018-06-03T08:24:02.798Z,31.35
2018-06-03T08:26:36.786Z,30.88
2018-06-03T08:29:11.091Z,32.40
2018-06-03T08:31:45.032Z,32.08
2018-06-03T08:34:18.964Z,32.15
2018-06-03T08:36:53.059Z,34.20
2018-06-03T08:39:30.615Z,33.42
2018-06-03T08:42:04.963Z,33.38
2018-06-03T08:44:39.153Z,34.10
2018-06-03T08:47:13.412Z,34.48
2018-06-03T08:49:48.154Z,34.45
2018-06-03T08:52:22.246Z,34.33
2018-06-03T08:54:56.551Z,33.50
2018-06-03T08:57:30.713Z,34.88
2018-06-03T09:00:04.891Z,33.95
2018-06-03T09:02:38.911Z,34.15
2018-06-03T09:05:17.654Z,35.88
2018-06-03T09:07:51.618Z,33.13
2018-06-03T09:10:25.567Z,32.23
2018-06-03T09:12:59.874Z,35.70
2018-06-03T09:15:34.297Z,34.58
2018-06-03T09:18:08.122Z,32.23
2018-06-03T09:20:48.384Z,32.20
2018-06-03T09:23:22.381Z,30.40
2018-06-03T09:25:56.581Z,29.48
2018-06-03T09:28:31.084Z,29.57
2018-06-03T09:31:06.288Z,30.97
2018-06-03T09:33:40.188Z,32.30
2018-06-03T09:36:15.310Z,30.23
2018-06-03T09:38:49.328Z,28.52
2018-06-03T09:41:23.319Z,31.40
2018-06-03T09:43:57.462Z,30.20
2018-06-03T09:46:31.357Z,32.15
2018-06-03T09:49:05.433Z,34.40
2018-06-03T09:51:43.401Z,32.17
2018-06-03T09:54:17.545Z,31.52
2018-06-03T09:56:51.468Z,32.75
2018-06-03T09:59:25.527Z,34.63
2018-06-03T10:01:59.971Z,32.10
2018-06-03T10:04:38.747Z,33.20
2018-06-03T10:07:13.007Z,34.38
2018-06-03T10:09:47.639Z,31.90
2018-06-03T10:12:21.893Z,31.82
2018-06-03T10:14:56.076Z,31.60
2018-06-03T10:17:30.483Z,33.48
2018-06-03T10:20:04.940Z,33.75
2018-06-03T10:22:39.228Z,31.42
2018-06-03T10:25:14.151Z,31.70
2018-06-03T10:27:48.582Z,32.78
2018-06-03T10:30:22.834Z,31.37
2018-06-03T10:32:56.974Z,30.75
2018-06-03T10:35:31.675Z,30.57
2018-06-03T10:38:05.812Z,30.80
2018-06-03T10:40:40.053Z,30.92
2018-06-03T10:43:14.113Z,29.85
2018-06-03T10:45:47.993Z,31.20
2018-06-03T10:48:22.089Z,33.28
2018-06-03T10:50:56.602Z,32.95
2018-06-03T10:53:37.961Z,32.83
2018-06-03T10:56:12.288Z,34.45
2018-06-03T10:58:46.297Z,32.20
2018-06-03T11:01:20.436Z,32.70
2018-06-03T11:06:39.148Z,36.53
2018-06-03T11:09:13.134Z,35.60
2018-06-03T11:11:47.454Z,36.33
2018-06-03T11:17:02.517Z,36.40
2018-06-03T11:19:42.194Z,35.23
2018-06-03T11:22:16.224Z,36.30
2018-06-03T11:24:50.552Z,36.53
2018-06-03T11:27:24.560Z,35.73
2018-06-03T11:29:59.678Z,35.00
2018-06-03T11:32:33.771Z,34.75
2018-06-03T11:37:48.554Z,38.02
2018-06-03T11:40:22.713Z,38.40
2018-06-03T11:42:56.883Z,36.58
2018-06-03T11:45:30.862Z,34.13
2018-06-03T11:48:04.823Z,35.20
2018-06-03T11:50:39.128Z,36.05
2018-06-03T11:53:13.369Z,36.33
2018-06-03T11:55:48.185Z,35.58
2018-06-03T11:58:42.409Z,36.85
2018-06-03T12:01:17.515Z,36.60
2018-06-03T12:03:55.443Z,34.53
2018-06-03T12:06:30.586Z,34.90
2018-06-03T12:09:06.027Z,34.83
2018-06-03T12:11:40.561Z,36.68
2018-06-03T12:14:14.575Z,34.18
2018-06-03T12:16:55.412Z,33.58
2018-06-03T12:19:30.207Z,36.73
2018-06-03T12:22:08.988Z,38.30
2018-06-03T12:24:44.262Z,34.83
2018-06-03T12:27:18.585Z,36.90
2018-06-03T12:29:57.068Z,36.00
2018-06-03T12:32:31.739Z,36.70
2018-06-03T12:35:06.635Z,34.27
2018-06-03T12:37:40.662Z,33.10
2018-06-03T12:40:14.524Z,33.73
2018-06-03T12:42:49.148Z,37.50
2018-06-03T12:45:23.661Z,37.23
2018-06-03T12:48:00.954Z,37.30
2018-06-03T12:50:34.998Z,36.63
2018-06-03T12:53:09.027Z,35.90
2018-06-03T12:55:43.031Z,34.50
2018-06-03T12:58:20.938Z,33.92
2018-06-03T13:03:43.007Z,29.85
2018-06-03T13:08:58.042Z,31.68
2018-06-03T13:11:32.411Z,29.90
2018-06-03T13:14:06.849Z,28.38
2018-06-03T13:16:40.647Z,27.77
2018-06-03T13:19:14.845Z,28.52
2018-06-03T13:21:48.779Z,29.65
2018-06-03T13:24:23.046Z,26.55
2018-06-03T13:26:56.987Z,25.30
2018-06-03T13:29:31.301Z,24.95
2018-06-03T13:32:05.253Z,24.75
2018-06-03T13:34:39.489Z,27.58
2018-06-03T13:37:13.512Z,24.95
2018-06-03T13:39:51.508Z,25.90
2018-06-03T13:42:25.899Z,25.00
2018-06-03T13:44:59.883Z,25.88
2018-06-03T13:47:35.733Z,23.75
2018-06-03T13:50:10.139Z,25.43
2018-06-03T13:52:44.147Z,23.42
2018-06-03T13:55:18.492Z,25.48
2018-06-03T13:57:52.625Z,23.25
2018-06-03T14:00:27.354Z,21.30
2018-06-03T14:03:01.528Z,20.75
2018-06-03T14:05:35.705Z,20.57
2018-06-03T14:08:09.994Z,22.42
2018-06-03T14:10:47.828Z,20.25
2018-06-03T14:13:21.877Z,19.98
2018-06-03T14:15:56.191Z,20.17
2018-06-03T14:18:30.624Z,20.60
2018-06-03T14:21:04.784Z,20.37
2018-06-03T14:23:39.798Z,19.48
2018-06-03T14:26:13.992Z,18.07
2018-06-03T14:28:48.251Z,17.82
2018-06-03T14:31:22.321Z,15.75
2018-06-03T14:33:56.268Z,15.40
2018-06-03T14:36:30.579Z,16.23
2018-06-03T14:39:07.058Z,19.52
2018-06-03T14:41:44.200Z,18.80
2018-06-03T14:44:18.116Z,18.48
2018-06-03T14:46:53.700Z,17.05
2018-06-03T14:49:27.813Z,19.17
2018-06-03T14:52:01.702Z,18.60
2018-06-03T14:54:36.216Z,17.37
2018-06-03T14:57:10.317Z,15.53
2018-06-03T15:02:24.807Z,15.53
2018-06-03T15:04:59.077Z,14.43
2018-06-03T15:07:33.151Z,14.87
2018-06-03T15:10:07.535Z,16.60
2018-06-03T15:12:41.632Z,16.73
2018-06-03T15:15:15.842Z,14.70
2018-06-03T15:17:49.540Z,16.12
2018-06-03T15:20:23.543Z,15.65
2018-06-03T15:22:57.604Z,17.12
2018-06-03T15:25:31.799Z,14.07
2018-06-03T15:28:09.189Z,16.77
2018-06-03T15:30:44.397Z,15.55
2018-06-03T15:33:22.269Z,13.58
2018-06-03T15:35:56.342Z,15.32
2018-06-03T15:38:35.759Z,12.45
2018-06-03T15:41:09.711Z,12.82
2018-06-03T15:43:50.563Z,13.90
2018-06-03T15:46:29.022Z,13.50
2018-06-03T15:49:03.139Z,12.78
2018-06-03T15:51:37.501Z,13.22
2018-06-03T15:54:11.649Z,12.20
2018-06-03T15:56:45.646Z,13.00
2018-06-03T15:59:19.574Z,16.57
2018-06-03T16:01:57.466Z,16.70
2018-06-03T16:04:31.388Z,15.70
2018-06-03T16:07:05.420Z,16.27
2018-06-03T16:09:39.469Z,14.55
2018-06-03T16:12:13.791Z,13.38
2018-06-03T16:14:48.107Z,15.65
2018-06-03T16:17:22.425Z,14.85
2018-06-03T16:19:56.867Z,14.20
2018-06-03T16:25:11.130Z,14.58
2018-06-03T16:27:48.320Z,15.25
2018-06-03T16:30:22.671Z,13.78
2018-06-03T16:32:57.360Z,13.53
2018-06-03T16:35:31.483Z,12.37
2018-06-03T16:38:05.530Z,12.70
2018-06-03T16:40:39.835Z,11.48
2018-06-03T16:43:14.376Z,12.58
2018-06-03T16:45:48.596Z,13.35
2018-06-03T16:48:23.210Z,12.40
2018-06-03T16:50:57.940Z,11.30
2018-06-03T16:53:38.635Z,11.75
2018-06-03T16:56:12.692Z,11.18
2018-06-03T16:58:47.202Z,11.68
2018-06-03T17:01:21.743Z,11.43
2018-06-03T17:04:03.812Z,10.95
2018-06-03T17:06:38.147Z,10.85
2018-06-03T17:09:12.207Z,10.45
2018-06-03T17:11:46.445Z,10.95
2018-06-03T17:14:20.834Z,11.73
2018-06-03T17:16:54.853Z,11.10
2018-06-03T17:19:29.113Z,11.63
2018-06-03T17:22:06.888Z,11.78
2018-06-03T17:24:44.953Z,9.65
2018-06-03T17:27:19.019Z,13.30
2018-06-03T17:32:38.633Z,11.43
2018-06-03T17:35:13.115Z,11.45
2018-06-03T17:37:51.020Z,10.65
2018-06-03T17:40:25.783Z,10.70
2018-06-03T17:42:59.753Z,9.85
2018-06-03T17:45:34.002Z,9.83
2018-06-03T17:48:08.250Z,9.93
2018-06-03T17:50:45.439Z,9.15
2018-06-03T17:53:20.093Z,10.08
2018-06-03T17:55:54.512Z,10.40
2018-06-03T17:58:28.603Z,10.08
2018-06-03T18:01:03.198Z,9.93
2018-06-03T18:03:37.002Z,9.90
2018-06-03T18:06:11.895Z,9.98
2018-06-03T18:08:46.417Z,10.05
2018-06-03T18:11:24.656Z,9.65
2018-06-03T18:13:59.189Z,9.25
2018-06-03T18:16:33.816Z,10.28
2018-06-03T18:19:07.970Z,9.33
2018-06-03T18:21:47.040Z,10.00
2018-06-03T18:24:22.133Z,9.75
2018-06-03T18:26:57.144Z,9.90
2018-06-03T18:29:31.505Z,10.40
2018-06-03T18:32:06.036Z,9.73
2018-06-03T18:34:41.045Z,10.03
2018-06-03T18:37:15.863Z,10.93
2018-06-03T18:39:50.152Z,10.85
2018-06-03T18:45:07.714Z,40.38
2018-06-03T18:47:42.125Z,27.52
2018-06-03T18:50:16.426Z,52.43
2018-06-03T18:55:31.007Z,52.73
2018-06-03T18:58:05.908Z,28.35
2018-06-03T19:00:39.918Z,21.05
2018-06-03T19:03:14.765Z,16.45
2018-06-03T19:05:48.920Z,15.90
2018-06-03T19:08:23.377Z,14.30
2018-06-03T19:10:57.538Z,15.43
2018-06-03T19:13:31.857Z,13.80
2018-06-03T19:16:06.170Z,12.90
2018-06-03T19:18:40.349Z,11.53
2018-06-03T19:21:14.901Z,12.40
2018-06-03T19:23:49.475Z,11.85
2018-06-03T19:26:24.029Z,10.13
2018-06-03T19:29:00.705Z,11.88
2018-06-03T19:31:34.724Z,11.43
2018-06-03T19:34:09.351Z,11.00
2018-06-03T19:36:43.923Z,11.50
2018-06-03T19:39:19.404Z,11.68
2018-06-03T19:41:53.879Z,12.07
2018-06-03T19:44:28.815Z,11.68
2018-06-03T19:47:03.188Z,12.18
2018-06-03T19:49:37.790Z,11.80
2018-06-03T19:52:12.229Z,12.23
2018-06-03T19:54:46.519Z,11.73
2018-06-03T19:57:20.679Z,12.15
2018-06-03T19:59:55.513Z,12.68
2018-06-03T20:02:29.565Z,12.03
2018-06-03T20:07:44.835Z,12.63
2018-06-03T20:10:19.904Z,13.78
2018-06-03T20:12:54.261Z,13.05
2018-06-03T20:15:29.418Z,12.50
2018-06-03T20:18:04.428Z,13.05
2018-06-03T20:20:42.326Z,13.10
2018-06-03T20:23:16.681Z,12.50
2018-06-03T20:25:51.215Z,13.28
2018-06-03T20:28:26.239Z,13.60
2018-06-03T20:31:01.408Z,13.10
2018-06-03T20:33:35.773Z,13.13
2018-06-03T20:36:11.661Z,12.68
2018-06-03T20:38:58.485Z,13.03
2018-06-03T21:22:05.373Z,15.93
2018-06-03T21:24:47.001Z,16.02
2018-06-03T21:27:21.020Z,16.50
2018-06-03T21:29:55.320Z,16.73
2018-06-03T21:40:31.457Z,16.45
2018-06-03T21:43:05.618Z,17.15
2018-06-03T21:45:39.709Z,17.10
2018-06-03T21:48:13.627Z,17.92
2018-06-03T21:50:48.051Z,17.77
2018-06-03T21:53:22.410Z,17.45
2018-06-03T21:55:56.308Z,18.45
2018-06-03T21:58:30.367Z,18.85
2018-06-03T22:01:04.644Z,19.87
2018-06-03T22:03:38.830Z,19.15
2018-06-03T22:06:12.888Z,20.23
2018-06-03T22:08:46.813Z,19.20
2018-06-03T22:11:20.839Z,19.92
2018-06-03T22:13:54.847Z,19.87
2018-06-03T22:16:28.957Z,19.75
2018-06-03T22:19:04.057Z,20.35
2018-06-03T22:21:37.987Z,21.45
2018-06-03T22:24:11.987Z,19.87
2018-06-03T22:26:46.104Z,20.82
2018-06-03T22:29:21.015Z,21.50
2018-06-03T22:31:55.157Z,21.50
2018-06-03T22:34:29.286Z,21.37
2018-06-03T22:37:03.158Z,21.20
2018-06-03T22:39:37.207Z,21.23
2018-06-03T22:42:11.562Z,21.13
2018-06-03T22:44:45.627Z,21.70
2018-06-03T22:47:19.801Z,21.90
2018-06-03T22:49:53.913Z,22.57
2018-06-03T22:52:27.626Z,21.73
2018-06-03T22:55:02.286Z,20.70
2018-06-03T22:57:45.890Z,21.97
2018-06-03T23:00:27.303Z,21.53
2018-06-03T23:03:06.800Z,20.97
2018-06-03T23:05:40.833Z,22.50
2018-06-03T23:08:14.950Z,22.43
2018-06-03T23:10:48.787Z,21.77
2018-06-03T23:13:22.802Z,21.60
2018-06-03T23:15:56.784Z,21.50
2018-06-03T23:18:31.099Z,21.20
2018-06-03T23:21:05.220Z,21.00
2018-06-03T23:23:39.523Z,20.57
2018-06-03T23:26:14.039Z,21.47
2018-06-03T23:28:48.124Z,21.57
2018-06-03T23:31:22.120Z,20.23
2018-06-03T23:33:55.910Z,21.33
2018-06-03T23:36:30.204Z,21.37
2018-06-03T23:39:06.445Z,22.27
2018-06-03T23:41:40.698Z,21.63
2018-06-03T23:44:15.366Z,22.13
2018-06-03T23:46:49.679Z,20.27
2018-06-03T23:49:23.859Z,21.03
2018-06-03T23:51:57.944Z,20.50
2018-06-03T23:54:32.163Z,21.87
2018-06-03T23:57:05.972Z,22.33
2018-06-03T23:59:40.243Z,22.70
